Time;durP1;ratioP1;P1;durP2;ratioP2;P2;SDS_P1;SDS_P2;PMS_P1;PMS_P2;Temp;Humidity;BMP_temperature;BMP_pressure;BME280_temperature;BME280_humidity;BME280_pressure;Samples;Min_cycle;Max_cycle;Signal;HPM_P1;HPM_P2
2021/12/20 00:02:14;;;;;;;5.37;2.10;;;4.20;99.90;;;;;;5094559;28;20564;-59
2021/12/20 00:04:41;;;;;;;4.90;1.60;;;4.20;99.90;;;;;;5096471;28;20804;-59
2021/12/20 00:07:08;;;;;;;6.97;2.40;;;4.20;99.90;;;;;;5097314;28;20445;-59
2021/12/20 00:09:36;;;;;;;3.10;1.97;;;4.20;99.90;;;;;;5096857;28;20549;-59
2021/12/20 00:12:04;;;;;;;9.20;2.70;;;4.20;99.90;;;;;;5096151;28;20677;-60
2021/12/20 00:14:31;;;;;;;5.03;2.20;;;4.30;99.90;;;;;;5096305;28;20527;-59
2021/12/20 00:17:00;;;;;;;7.43;1.80;;;4.30;99.90;;;;;;5096256;28;20507;-59
2021/12/20 00:19:27;;;;;;;8.40;2.40;;;4.30;99.90;;;;;;5096137;28;20496;-59
2021/12/20 00:21:54;;;;;;;8.37;2.40;;;4.30;99.90;;;;;;5096259;28;20540;-59
2021/12/20 00:24:21;;;;;;;7.77;3.27;;;4.30;99.90;;;;;;5096324;28;20480;-60
2021/12/20 00:26:49;;;;;;;5.60;2.00;;;4.40;99.90;;;;;;5097460;28;20473;-59
2021/12/20 00:29:16;;;;;;;4.80;2.23;;;4.50;99.90;;;;;;5096700;28;20524;-59
2021/12/20 00:31:43;;;;;;;6.43;2.03;;;4.60;99.90;;;;;;5097286;28;20528;-59
2021/12/20 00:34:10;;;;;;;9.37;3.43;;;4.60;99.90;;;;;;5097144;28;20442;-59
2021/12/20 00:36:39;;;;;;;4.33;2.03;;;4.50;99.90;;;;;;5097183;28;20544;-59
2021/12/20 00:41:53;;;;;;;12.30;2.70;;;4.30;99.90;;;;;;5096970;28;20417;-59
2021/12/20 00:44:20;;;;;;;4.30;2.27;;;4.20;99.90;;;;;;5096567;28;20496;-60
2021/12/20 00:46:47;;;;;;;5.70;1.80;;;4.10;99.90;;;;;;5096888;28;20923;-59
2021/12/20 00:49:14;;;;;;;7.27;2.10;;;4.10;99.90;;;;;;5095241;28;20820;-59
2021/12/20 00:51:41;;;;;;;6.80;1.80;;;4.00;99.90;;;;;;5095627;28;20485;-59
2021/12/20 00:54:08;;;;;;;4.57;2.03;;;4.10;99.90;;;;;;5095089;28;20530;-59
2021/12/20 00:56:34;;;;;;;4.27;1.67;;;4.10;99.90;;;;;;5094358;28;21029;-61
2021/12/20 00:59:03;;;;;;;10.03;3.53;;;4.10;99.90;;;;;;5093829;28;20540;-60
2021/12/20 01:01:30;;;;;;;5.87;1.90;;;4.10;99.90;;;;;;5095036;28;20537;-59
2021/12/20 01:03:57;;;;;;;7.30;3.93;;;4.10;99.90;;;;;;5092960;28;20576;-59
2021/12/20 01:06:24;;;;;;;6.80;2.83;;;4.10;99.90;;;;;;5093300;28;20548;-59
2021/12/20 01:08:51;;;;;;;4.80;1.97;;;4.10;99.90;;;;;;5093739;28;20824;-59
2021/12/20 01:11:23;;;;;;;7.30;3.10;;;4.10;99.90;;;;;;5093918;28;20497;-59
2021/12/20 01:13:50;;;;;;;7.00;3.67;;;4.10;99.90;;;;;;5092374;28;20434;-59
2021/12/20 01:16:28;;;;;;;7.87;3.17;;;4.10;99.90;;;;;;5092792;28;20420;-59
2021/12/20 01:18:55;;;;;;;7.63;2.70;;;4.10;99.90;;;;;;5094240;28;20462;-59
2021/12/20 01:21:22;;;;;;;6.87;2.53;;;4.10;99.90;;;;;;5094194;28;20967;-59
2021/12/20 01:23:51;;;;;;;5.33;2.10;;;4.10;99.90;;;;;;5094014;28;20571;-59
2021/12/20 01:26:19;;;;;;;7.07;3.70;;;4.10;99.90;;;;;;5094716;28;20503;-59
2021/12/20 01:28:47;;;;;;;7.03;2.73;;;4.20;99.90;;;;;;5095968;28;20816;-60
2021/12/20 01:31:14;;;;;;;6.27;2.10;;;4.20;99.90;;;;;;5095342;28;20953;-59
2021/12/20 01:33:42;;;;;;;7.93;3.20;;;4.20;99.90;;;;;;5093469;28;20525;-59
2021/12/20 01:36:09;;;;;;;9.10;3.33;;;4.30;99.90;;;;;;5093783;28;20557;-59
2021/12/20 01:38:36;;;;;;;6.87;2.63;;;4.30;99.90;;;;;;5093905;28;20536;-59
2021/12/20 01:41:03;;;;;;;8.87;3.33;;;4.40;99.90;;;;;;5093521;28;20492;-59
2021/12/20 01:43:30;;;;;;;6.17;2.70;;;4.40;99.90;;;;;;5093885;28;20481;-59
2021/12/20 01:45:59;;;;;;;8.97;2.67;;;4.40;99.90;;;;;;5093840;28;20545;-59
2021/12/20 01:48:26;;;;;;;4.70;1.80;;;4.30;99.90;;;;;;5095926;28;20476;-59
2021/12/20 01:53:40;;;;;;;7.33;3.23;;;4.20;99.90;;;;;;5095438;28;20416;-59
2021/12/20 01:56:09;;;;;;;6.20;2.40;;;4.20;99.90;;;;;;5095131;28;20517;-59
2021/12/20 01:58:36;;;;;;;5.90;3.20;;;4.20;99.90;;;;;;5095303;28;20503;-59
2021/12/20 02:01:21;;;;;;;6.90;2.93;;;4.20;99.90;;;;;;5095605;28;20540;-59
2021/12/20 02:03:55;;;;;;;4.93;2.07;;;4.30;99.90;;;;;;5095460;28;20481;-59
2021/12/20 02:06:28;;;;;;;8.93;3.07;;;4.30;99.90;;;;;;5095349;28;20454;-59
2021/12/20 02:08:56;;;;;;;5.50;1.90;;;4.30;99.90;;;;;;5098943;28;20452;-59
2021/12/20 02:11:23;;;;;;;7.00;3.37;;;4.30;99.90;;;;;;5100191;28;20492;-59
2021/12/20 02:13:51;;;;;;;7.60;4.13;;;4.30;99.90;;;;;;5099955;28;20829;-60
2021/12/20 02:16:19;;;;;;;7.83;2.03;;;4.20;99.90;;;;;;5100503;28;20872;-60
2021/12/20 02:18:46;;;;;;;7.50;2.70;;;4.20;99.90;;;;;;5099899;28;20753;-59
2021/12/20 02:21:14;;;;;;;6.73;2.33;;;4.20;99.90;;;;;;5099517;28;20553;-59
2021/12/20 02:23:42;;;;;;;7.43;2.67;;;4.20;99.90;;;;;;5098971;28;20564;-60
2021/12/20 02:26:11;;;;;;;6.70;1.70;;;4.10;99.90;;;;;;5099766;28;20556;-59
2021/12/20 02:28:43;;;;;;;8.87;2.80;;;4.10;99.90;;;;;;5098319;28;20766;-60
2021/12/20 02:39:28;;;;;;;7.13;2.63;;;4.20;99.90;;;;;;5097545;28;20471;-59
2021/12/20 02:41:54;;;;;;;10.10;2.73;;;4.20;99.90;;;;;;5098336;28;20796;-60
2021/12/20 02:44:24;;;;;;;6.97;1.87;;;4.30;99.90;;;;;;5099135;28;20473;-59
2021/12/20 02:47:04;;;;;;;4.73;1.70;;;4.30;99.90;;;;;;5098219;28;20446;-59
2021/12/20 02:49:33;;;;;;;3.83;1.70;;;4.20;99.90;;;;;;5097242;28;20457;-60
2021/12/20 02:52:03;;;;;;;7.23;3.07;;;4.10;99.90;;;;;;5097725;28;20817;-59
2021/12/20 02:54:31;;;;;;;7.03;2.13;;;4.10;99.90;;;;;;5097249;28;20904;-59
2021/12/20 02:56:58;;;;;;;5.60;2.90;;;4.10;99.90;;;;;;5097038;28;20564;-59
2021/12/20 02:59:25;;;;;;;7.87;2.57;;;4.00;99.90;;;;;;5097134;28;20552;-59
2021/12/20 03:01:54;;;;;;;11.43;3.57;;;4.10;99.90;;;;;;5096282;28;20441;-60
2021/12/20 03:04:21;;;;;;;7.00;2.17;;;4.10;99.90;;;;;;5095092;28;20512;-60
2021/12/20 03:06:51;;;;;;;8.77;2.60;;;4.10;99.90;;;;;;5096023;28;20498;-60
2021/12/20 03:09:22;;;;;;;8.30;3.03;;;4.10;99.90;;;;;;5097295;28;20532;-60
2021/12/20 03:11:54;;;;;;;7.83;3.37;;;4.10;99.90;;;;;;5098406;28;20453;-59
2021/12/20 03:14:26;;;;;;;6.27;2.30;;;4.00;99.90;;;;;;5098610;28;20508;-59
2021/12/20 03:16:53;;;;;;;9.63;3.40;;;4.00;99.90;;;;;;5098262;28;20478;-59
2021/12/20 03:19:21;;;;;;;8.10;2.97;;;4.10;99.90;;;;;;5097244;28;20524;-59
2021/12/20 03:21:48;;;;;;;10.60;2.43;;;4.20;99.90;;;;;;5098883;28;20460;-60
2021/12/20 03:24:15;;;;;;;8.37;2.70;;;4.20;99.90;;;;;;5097592;28;20571;-59
2021/12/20 03:26:44;;;;;;;7.80;2.63;;;4.30;99.90;;;;;;5098803;28;20449;-59
2021/12/20 03:29:11;;;;;;;6.10;2.57;;;4.30;99.90;;;;;;5097648;28;20449;-59
2021/12/20 03:31:38;;;;;;;9.07;2.70;;;4.30;99.90;;;;;;5097858;28;20525;-59
2021/12/20 03:34:06;;;;;;;8.33;2.60;;;4.40;99.90;;;;;;5097140;28;20540;-58
2021/12/20 03:36:33;;;;;;;6.83;2.77;;;4.40;99.90;;;;;;5098424;28;20446;-60
2021/12/20 03:39:00;;;;;;;5.27;2.60;;;4.50;99.90;;;;;;5098461;28;20541;-60
2021/12/20 03:41:27;;;;;;;7.47;2.57;;;4.50;99.90;;;;;;5097402;28;20482;-60
2021/12/20 03:43:56;;;;;;;12.23;3.37;;;4.50;99.90;;;;;;5098493;28;20567;-60
2021/12/20 03:46:23;;;;;;;10.77;3.20;;;4.40;99.90;;;;;;5098501;28;20544;-59
2021/12/20 03:48:50;;;;;;;6.50;2.93;;;4.50;99.90;;;;;;5095963;28;20477;-60
2021/12/20 03:51:18;;;;;;;8.33;3.30;;;4.50;99.90;;;;;;5096102;28;20897;-59
2021/12/20 03:53:45;;;;;;;4.87;2.37;;;4.60;99.90;;;;;;5096913;28;20674;-59
2021/12/20 03:56:12;;;;;;;9.63;2.43;;;4.60;99.90;;;;;;5096629;28;20481;-59
2021/12/20 03:58:39;;;;;;;11.97;2.77;;;4.60;99.90;;;;;;5096377;28;20446;-59
2021/12/20 04:01:10;;;;;;;9.80;2.83;;;4.60;99.90;;;;;;5096484;28;20547;-59
2021/12/20 04:03:39;;;;;;;7.47;1.60;;;4.40;99.90;;;;;;5097124;28;20481;-59
2021/12/20 04:06:07;;;;;;;7.60;3.70;;;4.20;99.90;;;;;;5097236;28;20966;-58
2021/12/20 04:08:34;;;;;;;6.10;2.80;;;4.10;99.90;;;;;;5097054;28;20552;-59
2021/12/20 04:11:02;;;;;;;6.20;2.83;;;4.00;99.90;;;;;;5095161;28;20855;-59
2021/12/20 04:13:29;;;;;;;7.53;3.20;;;3.90;99.90;;;;;;5095623;28;20524;-59
2021/12/20 04:15:57;;;;;;;8.60;3.60;;;3.90;99.90;;;;;;5095140;28;20460;-59
2021/12/20 04:18:26;;;;;;;4.70;2.17;;;3.90;99.90;;;;;;5095119;28;20540;-59
2021/12/20 04:20:53;;;;;;;8.30;3.20;;;3.90;99.90;;;;;;5095724;28;20557;-59
2021/12/20 04:23:20;;;;;;;8.80;3.40;;;3.90;99.90;;;;;;5094214;28;20568;-59
2021/12/20 04:25:47;;;;;;;7.30;2.23;;;3.90;99.90;;;;;;5095920;28;20477;-59
2021/12/20 04:28:15;;;;;;;7.13;2.30;;;3.90;99.90;;;;;;5096055;28;20520;-59
2021/12/20 04:30:42;;;;;;;10.27;2.00;;;3.90;99.90;;;;;;5095379;28;20493;-60
2021/12/20 04:33:09;;;;;;;7.90;2.93;;;3.90;99.90;;;;;;5095947;28;20465;-59
2021/12/20 04:35:39;;;;;;;8.00;3.00;;;4.00;99.90;;;;;;5095196;28;20552;-59
2021/12/20 04:38:08;;;;;;;7.57;2.90;;;4.20;99.90;;;;;;5096376;28;20525;-60
2021/12/20 04:40:35;;;;;;;9.03;2.53;;;4.30;99.90;;;;;;5096604;28;20457;-59
2021/12/20 04:43:04;;;;;;;14.43;4.80;;;4.50;99.90;;;;;;5095630;28;20540;-60
2021/12/20 04:45:31;;;;;;;6.70;2.50;;;4.60;99.90;;;;;;5095682;28;20493;-60
2021/12/20 04:47:59;;;;;;;6.07;3.20;;;4.50;99.90;;;;;;5096444;28;20488;-59
2021/12/20 04:50:28;;;;;;;5.53;2.87;;;4.50;99.90;;;;;;5096548;28;20869;-59
2021/12/20 04:52:56;;;;;;;6.60;2.67;;;4.50;99.90;;;;;;5095213;28;20473;-60
2021/12/20 04:55:24;;;;;;;8.43;2.27;;;4.50;99.90;;;;;;5094548;28;20537;-59
2021/12/20 04:57:53;;;;;;;6.33;2.23;;;4.40;99.90;;;;;;5093696;28;20488;-60
2021/12/20 05:00:22;;;;;;;3.67;1.50;;;4.30;99.90;;;;;;5092984;28;20540;-59
2021/12/20 05:02:50;;;;;;;7.37;2.63;;;4.30;99.90;;;;;;5092697;28;20473;-59
2021/12/20 05:05:17;;;;;;;5.83;1.40;;;4.30;99.90;;;;;;5091858;28;20584;-59
2021/12/20 05:07:45;;;;;;;5.20;2.13;;;4.20;99.90;;;;;;5092035;28;20547;-60
2021/12/20 05:10:25;;;;;;;6.90;2.30;;;4.20;99.90;;;;;;5094125;28;20485;-59
2021/12/20 05:12:52;;;;;;;8.03;4.13;;;4.30;99.90;;;;;;5095998;28;20450;-59
2021/12/20 05:15:19;;;;;;;7.10;2.37;;;4.30;99.90;;;;;;5095447;28;20800;-59
2021/12/20 05:17:46;;;;;;;4.37;2.33;;;4.20;99.90;;;;;;5094855;28;20477;-59
2021/12/20 05:20:14;;;;;;;8.23;2.97;;;4.20;99.90;;;;;;5094996;28;20549;-58
2021/12/20 05:22:41;;;;;;;5.10;2.60;;;4.20;99.90;;;;;;5095620;28;20452;-58
2021/12/20 05:25:09;;;;;;;13.57;1.90;;;4.30;99.90;;;;;;5095208;28;20576;-59
2021/12/20 05:27:37;;;;;;;3.27;1.40;;;4.20;99.90;;;;;;5095235;28;20528;-58
2021/12/20 05:30:07;;;;;;;4.17;1.43;;;4.20;99.90;;;;;;5095515;28;20544;-59
2021/12/20 05:32:34;;;;;;;9.07;2.40;;;4.10;99.90;;;;;;5095665;28;20813;-58
2021/12/20 05:35:01;;;;;;;6.27;2.80;;;4.10;99.90;;;;;;5096309;28;20822;-59
2021/12/20 05:37:28;;;;;;;5.10;2.13;;;4.00;99.90;;;;;;5095948;28;20821;-58
2021/12/20 05:39:55;;;;;;;5.47;1.80;;;4.00;99.90;;;;;;5095722;28;20557;-58
2021/12/20 05:42:22;;;;;;;6.10;2.43;;;4.00;99.90;;;;;;5094919;28;20528;-59
2021/12/20 05:44:51;;;;;;;9.83;2.73;;;4.00;99.90;;;;;;5096170;28;20580;-59
2021/12/20 05:47:20;;;;;;;4.73;1.90;;;4.00;99.90;;;;;;5096016;28;20446;-59
2021/12/20 05:49:47;;;;;;;6.40;1.50;;;4.10;99.90;;;;;;5096082;28;20454;-59
2021/12/20 05:52:14;;;;;;;4.60;1.63;;;4.10;99.90;;;;;;5095864;28;20540;-59
2021/12/20 05:54:40;;;;;;;6.33;1.80;;;4.10;99.90;;;;;;5095883;28;20947;-59
2021/12/20 05:57:07;;;;;;;5.00;2.17;;;4.20;99.90;;;;;;5095533;28;21008;-59
2021/12/20 05:59:35;;;;;;;7.50;2.00;;;4.20;99.90;;;;;;5095780;28;20771;-59
2021/12/20 06:02:06;;;;;;;5.87;2.00;;;4.30;99.90;;;;;;5095585;28;20532;-59
2021/12/20 06:04:33;;;;;;;5.27;1.70;;;4.30;99.90;;;;;;5095789;28;20576;-59
2021/12/20 06:07:00;;;;;;;6.50;2.90;;;4.30;99.90;;;;;;5096137;28;20536;-59
2021/12/20 06:09:28;;;;;;;4.33;1.70;;;4.30;99.90;;;;;;5094558;28;20477;-58
2021/12/20 06:11:59;;;;;;;7.30;3.17;;;4.40;99.90;;;;;;5094390;28;20438;-58
2021/12/20 06:14:27;;;;;;;9.53;3.80;;;4.50;99.90;;;;;;5092313;28;20497;-59
2021/12/20 06:16:55;;;;;;;5.77;2.03;;;4.60;99.90;;;;;;5093727;28;20548;-59
2021/12/20 06:19:24;;;;;;;6.07;2.13;;;4.60;99.90;;;;;;5093732;28;20518;-59
2021/12/20 06:21:51;;;;;;;6.07;1.50;;;4.60;99.90;;;;;;5090694;28;20615;-59
2021/12/20 06:24:19;;;;;;;5.10;2.00;;;4.60;99.90;;;;;;5091339;28;20520;-59
2021/12/20 06:26:46;;;;;;;6.53;1.83;;;4.50;99.90;;;;;;5091500;28;20719;-59
2021/12/20 06:29:13;;;;;;;4.53;2.07;;;4.50;99.90;;;;;;5091437;28;20481;-59
2021/12/20 06:31:43;;;;;;;7.73;2.23;;;4.40;99.90;;;;;;5091348;28;20477;-59
2021/12/20 06:34:10;;;;;;;7.83;2.67;;;4.40;99.90;;;;;;5092989;28;20928;-59
2021/12/20 06:36:39;;;;;;;6.70;3.13;;;4.40;99.90;;;;;;5094585;28;20583;-59
2021/12/20 06:39:06;;;;;;;4.60;2.17;;;4.30;99.90;;;;;;5093731;28;20817;-59
2021/12/20 06:41:34;;;;;;;8.03;2.80;;;4.30;99.90;;;;;;5093175;28;20831;-59
2021/12/20 06:44:04;;;;;;;7.30;1.83;;;4.30;99.90;;;;;;5093121;28;20779;-59
2021/12/20 06:46:34;;;;;;;4.77;1.63;;;4.30;99.90;;;;;;5094790;28;20446;-60
2021/12/20 06:49:05;;;;;;;5.73;2.70;;;4.30;99.90;;;;;;5091149;28;20525;-59
2021/12/20 06:51:33;;;;;;;8.30;2.13;;;4.20;99.90;;;;;;5093902;28;20453;-60
2021/12/20 06:54:02;;;;;;;6.70;1.83;;;4.20;99.90;;;;;;5095972;28;20770;-60
2021/12/20 06:56:29;;;;;;;5.67;1.53;;;4.30;99.90;;;;;;5097262;28;20564;-59
2021/12/20 06:58:56;;;;;;;4.73;2.50;;;4.20;99.90;;;;;;5098103;28;20532;-59
2021/12/20 07:01:23;;;;;;;8.57;3.10;;;4.30;99.90;;;;;;5097703;28;20540;-60
2021/12/20 07:03:50;;;;;;;5.73;2.40;;;4.30;99.90;;;;;;5096399;28;20537;-58
2021/12/20 07:06:17;;;;;;;4.17;1.87;;;4.20;99.90;;;;;;5098136;28;20489;-58
2021/12/20 07:08:44;;;;;;;7.87;2.77;;;4.20;99.90;;;;;;5096880;28;20524;-58
2021/12/20 07:11:13;;;;;;;4.50;2.10;;;4.20;99.90;;;;;;5098538;28;20915;-58
2021/12/20 07:13:40;;;;;;;9.93;3.13;;;4.30;99.90;;;;;;5098563;28;20806;-58
2021/12/20 07:16:07;;;;;;;8.63;3.77;;;4.40;99.90;;;;;;5094849;28;20456;-58
2021/12/20 07:18:34;;;;;;;6.27;2.33;;;4.60;99.90;;;;;;5088011;28;20522;-58
2021/12/20 07:21:02;;;;;;;5.60;2.13;;;5.20;99.90;;;;;;5096738;28;20935;-58
2021/12/20 07:23:29;;;;;;;5.00;2.03;;;5.20;99.90;;;;;;5082180;28;20529;-58
2021/12/20 07:25:56;;;;;;;6.00;2.47;;;5.30;99.90;;;;;;5104860;28;20584;-59
2021/12/20 07:28:27;;;;;;;9.97;2.83;;;5.20;99.90;;;;;;5082576;28;20473;-59
2021/12/20 07:30:54;;;;;;;7.77;2.60;;;5.00;99.90;;;;;;5084800;28;20536;-59
2021/12/20 07:33:21;;;;;;;8.97;2.10;;;5.00;99.90;;;;;;5090206;28;20571;-59
2021/12/20 07:35:49;;;;;;;9.03;3.60;;;5.10;99.90;;;;;;5090055;28;20515;-59
2021/12/20 07:38:18;;;;;;;8.77;2.63;;;5.00;99.90;;;;;;5096541;28;20796;-59
2021/12/20 07:40:46;;;;;;;7.40;2.53;;;5.00;99.90;;;;;;5086059;28;20451;-59
2021/12/20 07:43:15;;;;;;;8.40;3.00;;;5.20;99.90;;;;;;5090438;28;20524;-59
2021/12/20 07:45:44;;;;;;;7.87;2.23;;;5.10;99.90;;;;;;5079536;28;20572;-59
2021/12/20 07:48:11;;;;;;;5.63;1.80;;;4.90;99.90;;;;;;5091396;28;20446;-59
2021/12/20 07:50:38;;;;;;;9.97;2.03;;;4.90;99.90;;;;;;5082030;28;20489;-59
2021/12/20 07:53:05;;;;;;;6.70;2.33;;;5.10;99.90;;;;;;5083026;28;20916;-59
2021/12/20 07:55:32;;;;;;;3.80;2.10;;;5.20;99.90;;;;;;5092528;28;20791;-59
2021/12/20 07:57:59;;;;;;;8.10;2.60;;;5.00;99.90;;;;;;5094686;28;20831;-59
2021/12/20 08:00:27;;;;;;;8.67;2.97;;;4.90;99.90;;;;;;5094066;28;20461;-60
2021/12/20 08:02:56;;;;;;;8.20;3.23;;;4.80;99.90;;;;;;5093325;28;20484;-59
2021/12/20 08:05:24;;;;;;;5.73;2.50;;;5.00;99.90;;;;;;5094776;28;20476;-59
2021/12/20 08:07:54;;;;;;;7.57;2.47;;;5.40;99.90;;;;;;5095384;28;20543;-59
2021/12/20 08:10:26;;;;;;;5.00;2.57;;;5.70;99.90;;;;;;5082192;28;20791;-59
2021/12/20 08:12:54;;;;;;;12.07;3.97;;;5.80;99.90;;;;;;5090354;28;20532;-59
2021/12/20 08:15:22;;;;;;;4.93;1.90;;;5.60;99.90;;;;;;5090463;28;20824;-59
2021/12/20 08:17:49;;;;;;;10.27;3.30;;;5.50;99.90;;;;;;5089861;28;20487;-59
2021/12/20 08:20:18;;;;;;;8.95;3.45;;;5.30;99.90;;;;;;5090190;28;20747;-59
2021/12/20 08:22:45;;;;;;;10.45;4.57;;;5.30;99.90;;;;;;5090671;28;20539;-59
2021/12/20 08:25:12;;;;;;;7.00;2.77;;;5.70;99.90;;;;;;5093839;28;20306;-59
2021/12/20 08:27:40;;;;;;;8.17;3.67;;;5.70;99.90;;;;;;5092411;28;20460;-59
2021/12/20 08:30:11;;;;;;;8.73;2.47;;;5.80;99.90;;;;;;5091236;28;20525;-58
2021/12/20 08:32:38;;;;;;;8.67;3.10;;;5.60;99.90;;;;;;5093853;28;20533;-59
2021/12/20 08:35:08;;;;;;;7.73;2.60;;;5.60;99.90;;;;;;5094250;28;20520;-60
2021/12/20 08:37:36;;;;;;;17.57;9.30;;;5.70;99.90;;;;;;5095255;28;20532;-60
2021/12/20 08:40:08;;;;;;;13.87;6.10;;;5.60;99.90;;;;;;5094982;28;20525;-59
2021/12/20 08:42:35;;;;;;;9.40;2.70;;;5.90;99.90;;;;;;5094742;28;20538;-59
2021/12/20 08:45:05;;;;;;;7.90;1.93;;;6.10;99.90;;;;;;5089311;28;20580;-59
2021/12/20 08:47:32;;;;;;;6.17;2.10;;;6.10;99.90;;;;;;5092419;28;20481;-59
2021/12/20 08:49:59;;;;;;;7.70;3.10;;;6.00;99.90;;;;;;5087457;28;20868;-60
2021/12/20 08:52:26;;;;;;;6.57;2.40;;;6.10;99.90;;;;;;5090181;28;20821;-58
2021/12/20 08:54:55;;;;;;;6.83;2.87;;;6.00;99.90;;;;;;5093154;28;20846;-59
2021/12/20 08:57:22;;;;;;;10.10;4.23;;;5.90;99.90;;;;;;5093156;28;20556;-59
2021/12/20 08:59:49;;;;;;;7.93;3.60;;;5.80;99.90;;;;;;5088472;28;20530;-59
2021/12/20 09:02:16;;;;;;;7.30;3.60;;;5.70;99.90;;;;;;5070741;28;20537;-58
2021/12/20 09:04:43;;;;;;;5.23;2.70;;;5.80;99.90;;;;;;5091759;28;20584;-59
2021/12/20 09:07:15;;;;;;;6.20;1.77;;;5.90;99.90;;;;;;5089127;28;20481;-59
2021/12/20 09:09:44;;;;;;;5.10;2.27;;;5.90;99.90;;;;;;5093989;28;20775;-59
2021/12/20 09:12:13;;;;;;;7.93;4.03;;;6.10;99.90;;;;;;5093926;28;20453;-59
2021/12/20 09:14:42;;;;;;;5.20;2.93;;;6.10;99.90;;;;;;5090395;28;21001;-59
2021/12/20 09:17:10;;;;;;;10.57;2.80;;;6.10;99.90;;;;;;5089069;28;20445;-59
2021/12/20 09:19:37;;;;;;;7.50;1.93;;;6.10;99.90;;;;;;5090286;28;20507;-60
2021/12/20 09:22:06;;;;;;;7.30;1.80;;;6.10;99.90;;;;;;5093533;28;20688;-59
2021/12/20 09:24:35;;;;;;;7.40;4.10;;;6.20;99.90;;;;;;5094254;28;20444;-60
2021/12/20 09:27:02;;;;;;;7.50;3.63;;;6.10;99.90;;;;;;5093558;28;20473;-59
2021/12/20 09:29:33;;;;;;;6.73;3.73;;;5.90;99.90;;;;;;5093665;28;20520;-59
2021/12/20 09:32:01;;;;;;;7.57;3.70;;;6.00;99.90;;;;;;5085747;28;20532;-60
2021/12/20 09:34:28;;;;;;;8.67;3.70;;;6.00;99.90;;;;;;5094011;28;20481;-59
2021/12/20 09:36:55;;;;;;;3.90;1.70;;;6.00;99.90;;;;;;5063917;28;20469;-59
2021/12/20 09:39:23;;;;;;;8.13;3.07;;;6.10;99.90;;;;;;5089064;28;20445;-59
2021/12/20 09:42:03;;;;;;;8.37;3.73;;;6.30;99.90;;;;;;5083592;28;20700;-59
2021/12/20 09:44:33;;;;;;;8.40;3.03;;;6.40;99.90;;;;;;5084012;28;20442;-61
2021/12/20 09:47:04;;;;;;;6.07;2.20;;;6.50;99.90;;;;;;5084309;28;20976;-63
2021/12/20 09:49:33;;;;;;;11.67;3.40;;;6.60;99.90;;;;;;5083668;28;20528;-61
2021/12/20 09:52:01;;;;;;;8.10;3.13;;;6.80;99.90;;;;;;5090586;28;20445;-62
2021/12/20 09:54:29;;;;;;;11.03;4.53;;;6.70;99.90;;;;;;5093513;28;20773;-61
2021/12/20 09:56:59;;;;;;;12.63;3.40;;;6.60;99.90;;;;;;5093169;28;20990;-61
2021/12/20 09:59:28;;;;;;;9.83;3.70;;;6.60;99.90;;;;;;5092441;28;20450;-62
2021/12/20 10:01:58;;;;;;;7.63;2.90;;;6.80;99.90;;;;;;5093532;28;20960;-62
2021/12/20 10:04:25;;;;;;;10.50;3.90;;;6.90;99.90;;;;;;5078890;28;20809;-61
2021/12/20 10:06:54;;;;;;;7.50;3.40;;;6.60;99.90;;;;;;5083039;28;21019;-62
2021/12/20 10:09:26;;;;;;;6.20;2.70;;;6.50;99.90;;;;;;5088344;28;20485;-62
2021/12/20 10:12:12;;;;;;;5.10;1.50;;;6.90;99.90;;;;;;5078286;28;20830;-56
2021/12/20 10:14:57;;;;;;;10.73;4.60;;;7.30;99.90;;;;;;5074115;28;20485;-54
2021/12/20 10:17:26;;;;;;;12.17;4.60;;;7.40;99.90;;;;;;5080795;28;20531;-54
2021/12/20 10:19:54;;;;;;;13.53;4.43;;;7.20;99.90;;;;;;5076658;28;20677;-55
2021/12/20 10:22:33;;;;;;;8.60;3.20;;;7.20;99.90;;;;;;5082836;28;20435;-55
2021/12/20 10:25:02;;;;;;;12.87;4.40;;;7.30;99.90;;;;;;5080109;28;20454;-54
2021/12/20 10:27:31;;;;;;;7.83;2.80;;;7.00;99.90;;;;;;5090753;28;21707;-55
2021/12/20 10:29:58;;;;;;;11.00;4.37;;;6.80;99.90;;;;;;5092536;28;20465;-55
2021/12/20 10:32:45;;;;;;;11.13;4.40;;;6.60;99.90;;;;;;5083546;28;21011;-56
2021/12/20 10:35:37;;;;;;;6.30;3.00;;;6.40;99.90;;;;;;5087345;28;20542;-55
2021/12/20 10:38:08;;;;;;;7.23;2.80;;;6.70;99.90;;;;;;5086682;28;20993;-53
2021/12/20 10:40:47;;;;;;;4.50;1.93;;;7.00;99.90;;;;;;5084483;28;20441;-56
2021/12/20 10:43:19;;;;;;;8.10;3.10;;;6.80;99.90;;;;;;5080292;28;20453;-56
2021/12/20 10:45:46;;;;;;;4.90;2.20;;;7.20;99.90;;;;;;5090472;28;20487;-58
2021/12/20 10:48:14;;;;;;;4.87;1.50;;;7.30;99.90;;;;;;5077148;28;20532;-58
2021/12/20 10:50:45;;;;;;;4.47;2.40;;;7.40;99.90;;;;;;5081019;28;20454;-57
2021/12/20 10:53:18;;;;;;;4.80;1.60;;;7.40;99.90;;;;;;5089121;28;20538;-57
2021/12/20 10:55:47;;;;;;;2.50;1.43;;;7.40;99.90;;;;;;5094911;28;20441;-58
2021/12/20 10:58:20;;;;;;;4.97;2.80;;;7.30;99.90;;;;;;5087931;28;20540;-58
2021/12/20 11:01:00;;;;;;;3.27;1.30;;;7.30;99.90;;;;;;5090461;28;20885;-59
2021/12/20 11:03:35;;;;;;;4.03;1.80;;;7.10;99.90;;;;;;5090000;28;20862;-58
2021/12/20 11:09:08;;;;;;;4.17;2.30;;;8.00;99.90;;;;;;5090653;28;20438;-58
2021/12/20 11:11:37;;;;;;;7.83;2.87;;;8.00;99.90;;;;;;5093076;28;20441;-58
2021/12/20 11:14:05;;;;;;;7.53;2.33;;;7.70;99.90;;;;;;5090680;28;21661;-55
2021/12/20 11:16:38;;;;;;;6.30;3.40;;;7.90;99.90;;;;;;5090014;28;20441;-59
2021/12/20 11:19:28;;;;;;;9.43;1.83;;;7.70;99.90;;;;;;5082102;28;20553;-59
2021/12/20 11:22:05;;;;;;;6.77;1.93;;;7.70;99.90;;;;;;5074165;28;20528;-59
2021/12/20 11:24:36;;;;;;;4.43;1.77;;;8.00;99.90;;;;;;5083884;28;20776;-59
2021/12/20 11:27:06;;;;;;;6.30;2.50;;;8.00;99.90;;;;;;5090832;28;20487;-59
2021/12/20 11:29:34;;;;;;;8.00;1.93;;;8.30;99.90;;;;;;5092544;28;20938;-59
2021/12/20 11:32:04;;;;;;;5.47;1.83;;;8.40;99.90;;;;;;5093373;28;20585;-58
2021/12/20 11:34:33;;;;;;;6.70;3.00;;;8.40;99.90;;;;;;5091558;28;20554;-58
2021/12/20 11:37:03;;;;;;;5.20;1.77;;;8.40;99.90;;;;;;5093461;28;20196;-57
2021/12/20 11:39:30;;;;;;;3.90;1.60;;;8.00;99.90;;;;;;5090469;28;20477;-57
2021/12/20 11:41:58;;;;;;;4.87;1.40;;;8.10;99.90;;;;;;5087094;28;20510;-58
2021/12/20 11:44:29;;;;;;;5.17;1.43;;;8.40;99.90;;;;;;5092988;28;20888;-58
2021/12/20 11:47:20;;;;;;;4.93;1.40;;;8.80;99.90;;;;;;5086700;28;20528;-58
2021/12/20 11:49:58;;;;;;;4.43;1.40;;;8.70;99.90;;;;;;5092989;28;20828;-67
2021/12/20 11:52:32;;;;;;;8.13;2.60;;;8.30;99.90;;;;;;5091507;28;20498;-60
2021/12/20 11:55:19;;;;;;;2.77;1.13;;;8.10;99.90;;;;;;5094005;28;20444;-52
2021/12/20 11:57:50;;;;;;;2.53;1.77;;;8.20;99.90;;;;;;5092434;28;20472;-50
2021/12/20 12:00:31;;;;;;;4.83;1.63;;;8.50;99.90;;;;;;5091059;28;20441;-51
2021/12/20 12:03:05;;;;;;;4.30;1.60;;;8.40;99.90;;;;;;5094882;28;20460;-51
2021/12/20 12:05:41;;;;;;;2.13;1.40;;;7.50;99.90;;;;;;5092196;28;20442;-52
2021/12/20 12:08:35;;;;;;;4.63;1.83;;;7.30;99.90;;;;;;5094406;28;20776;-54
2021/12/20 12:11:33;;;;;;;4.53;1.20;;;7.40;99.90;;;;;;5096182;28;20831;-56
2021/12/20 12:14:23;;;;;;;5.33;1.20;;;7.70;99.90;;;;;;5093841;28;20936;-52
2021/12/20 12:16:59;;;;;;;2.60;1.13;;;8.20;99.90;;;;;;5092111;28;20445;-55
2021/12/20 12:19:53;;;;;;;5.37;1.60;;;8.00;99.90;;;;;;5079252;28;20472;-52
2021/12/20 12:22:41;;;;;;;4.67;1.73;;;7.60;99.90;;;;;;5027239;28;20489;-53
2021/12/20 12:25:11;;;;;;;7.93;3.47;;;7.20;99.90;;;;;;5093605;28;20920;-51
2021/12/20 12:27:43;;;;;;;7.90;1.60;;;7.00;99.90;;;;;;5092748;28;20477;-55
2021/12/20 12:30:36;;;;;;;5.63;2.10;;;6.80;99.90;;;;;;5085796;28;20449;-55
2021/12/20 12:33:38;;;;;;;4.90;2.17;;;6.80;99.90;;;;;;5084936;28;20951;-53
2021/12/20 12:36:39;;;;;;;5.87;2.03;;;6.90;99.90;;;;;;5089641;28;20449;-52
2021/12/20 12:39:22;;;;;;;4.70;1.47;;;7.10;99.90;;;;;;5092580;28;20465;-50
2021/12/20 12:41:55;;;;;;;5.07;2.23;;;7.00;99.90;;;;;;5091423;28;20936;-49
2021/12/20 12:44:27;;;;;;;6.77;2.63;;;7.00;99.90;;;;;;5078543;28;20469;-49
2021/12/20 12:46:59;;;;;;;3.50;2.00;;;7.10;99.90;;;;;;5078124;28;20477;-50
2021/12/20 12:49:36;;;;;;;3.27;1.30;;;7.20;99.90;;;;;;5077766;28;20462;-51
2021/12/20 12:52:11;;;;;;;3.27;1.30;;;7.10;99.90;;;;;;5072196;28;20438;-52
2021/12/20 12:54:43;;;;;;;5.03;1.20;;;7.20;99.90;;;;;;5079389;28;20475;-51
2021/12/20 12:57:30;;;;;;;4.00;1.70;;;7.10;99.90;;;;;;5089690;28;20465;-51
2021/12/20 13:00:08;;;;;;;3.20;1.20;;;7.20;99.90;;;;;;5090046;28;20528;-52
2021/12/20 13:02:37;;;;;;;2.30;1.30;;;7.30;99.90;;;;;;5086136;28;20646;-50
2021/12/20 13:05:14;;;;;;;6.83;1.10;;;7.40;99.90;;;;;;5079433;28;20448;-50
2021/12/20 13:07:49;;;;;;;3.63;1.20;;;7.40;99.90;;;;;;5092304;28;20488;-51
2021/12/20 13:10:19;;;;;;;3.70;1.03;;;7.30;99.90;;;;;;5092953;28;20444;-53
2021/12/20 13:12:53;;;;;;;2.10;1.20;;;7.40;99.90;;;;;;5093809;28;20457;-51
2021/12/20 13:15:27;;;;;;;2.30;1.10;;;7.10;99.90;;;;;;5090523;28;20897;-52
2021/12/20 13:18:05;;;;;;;3.60;1.20;;;6.90;99.90;;;;;;5078913;28;20548;-49
2021/12/20 13:20:37;;;;;;;5.00;2.13;;;6.90;99.90;;;;;;5079313;28;20456;-53
2021/12/20 13:23:06;;;;;;;3.23;1.10;;;7.00;99.90;;;;;;5079054;28;20464;-48
2021/12/20 13:25:41;;;;;;;3.00;0.90;;;6.80;99.90;;;;;;5081295;28;20809;-50
2021/12/20 13:28:13;;;;;;;5.23;1.30;;;6.70;99.90;;;;;;5088195;28;20875;-51